Time;durP1;ratioP1;P1;durP2;ratioP2;P2;SDS_P1;SDS_P2;PMS_P1;PMS_P2;Temp;Humidity;BMP_temperature;BMP_pressure;BME280_temperature;BME280_humidity;BME280_pressure;Samples;Min_cycle;Max_cycle;Signal;HPM_P1;HPM_P2
2022/05/04 00:00:14;;;;;;;10.80;4.87;;;;;;;;;;4963390;28;20644;-78
2022/05/04 00:02:42;;;;;;;10.13;4.77;;;;;;;;;;4967273;28;20244;-78
2022/05/04 00:05:10;;;;;;;10.13;5.17;;;;;;;;;;4969592;28;20231;-79
2022/05/04 00:07:37;;;;;;;8.77;4.87;;;;;;;;;;4971754;28;20660;-78
2022/05/04 00:10:04;;;;;;;9.30;4.50;;;;;;;;;;4971660;28;20308;-79
2022/05/04 00:12:32;;;;;;;12.83;5.20;;;;;;;;;;4972213;28;20257;-77
2022/05/04 00:15:01;;;;;;;11.87;4.33;;;;;;;;;;4970127;28;20575;-77
2022/05/04 00:17:28;;;;;;;11.90;4.90;;;;;;;;;;4969722;28;20221;-79
2022/05/04 00:19:55;;;;;;;12.67;4.90;;;;;;;;;;4969523;28;20197;-78
2022/05/04 00:22:23;;;;;;;9.73;4.90;;;;;;;;;;4971651;28;20312;-77
2022/05/04 00:24:50;;;;;;;7.30;4.43;;;;;;;;;;4967916;28;20205;-77
2022/05/04 00:27:17;;;;;;;8.90;4.47;;;;;;;;;;4970425;28;20276;-78
2022/05/04 00:29:45;;;;;;;8.47;5.10;;;;;;;;;;4968720;28;20242;-78
2022/05/04 00:32:14;;;;;;;7.10;4.70;;;;;;;;;;4966479;28;20222;-78
2022/05/04 00:34:41;;;;;;;6.97;4.50;;;;;;;;;;4969912;28;20213;-78
2022/05/04 00:37:09;;;;;;;10.23;4.70;;;;;;;;;;4968137;28;20260;-79
2022/05/04 00:39:36;;;;;;;8.70;4.90;;;;;;;;;;4971312;28;20205;-78
2022/05/04 00:42:10;;;;;;;8.87;4.70;;;;;;;;;;4972003;28;20237;-79
2022/05/04 00:44:37;;;;;;;12.43;4.73;;;;;;;;;;5003738;23;20236;-79
2022/05/04 00:47:04;;;;;;;10.07;5.03;;;;;;;;;;4987212;28;20213;-79
2022/05/04 00:49:36;;;;;;;10.77;5.17;;;;;;;;;;4991157;28;20672;-80
2022/05/04 00:52:06;;;;;;;9.83;4.80;;;;;;;;;;4988814;28;20211;-80
2022/05/04 00:54:33;;;;;;;8.47;4.50;;;;;;;;;;4988702;28;20279;-80
2022/05/04 00:57:01;;;;;;;8.67;4.90;;;;;;;;;;4991861;28;20225;-80
2022/05/04 00:59:27;;;;;;;8.23;4.57;;;;;;;;;;4989973;28;20593;-79
2022/05/04 01:01:55;;;;;;;11.10;5.00;;;;;;;;;;4986634;28;20209;-80
2022/05/04 01:04:22;;;;;;;7.90;4.63;;;;;;;;;;4987285;28;20230;-79
2022/05/04 01:06:50;;;;;;;10.30;4.77;;;;;;;;;;4985675;28;20201;-80
2022/05/04 01:09:18;;;;;;;11.57;5.37;;;;;;;;;;4987900;28;20716;-79
2022/05/04 01:11:46;;;;;;;8.50;4.90;;;;;;;;;;4985650;28;20198;-79
2022/05/04 01:14:13;;;;;;;12.77;5.10;;;;;;;;;;4986522;28;20316;-80
2022/05/04 01:16:41;;;;;;;10.17;4.83;;;;;;;;;;4984315;28;20236;-79
2022/05/04 01:19:09;;;;;;;7.20;4.57;;;;;;;;;;4987965;28;20206;-80
2022/05/04 01:21:36;;;;;;;8.57;5.00;;;;;;;;;;4985021;28;20887;-79
2022/05/04 01:24:06;;;;;;;7.90;4.80;;;;;;;;;;4986999;28;20235;-80
2022/05/04 01:26:33;;;;;;;10.83;4.37;;;;;;;;;;4983389;28;20216;-80
2022/05/04 01:29:00;;;;;;;10.47;4.90;;;;;;;;;;4987004;28;20213;-78
2022/05/04 01:31:27;;;;;;;8.03;4.37;;;;;;;;;;4982718;28;20331;-79
2022/05/04 01:33:55;;;;;;;6.60;4.37;;;;;;;;;;4981158;28;20291;-79
2022/05/04 01:36:23;;;;;;;11.97;4.87;;;;;;;;;;4987180;28;20222;-79
2022/05/04 01:38:52;;;;;;;8.07;4.90;;;;;;;;;;4984317;28;20247;-79
2022/05/04 01:44:05;;;;;;;13.57;5.23;;;;;;;;;;4985618;28;20283;-79
2022/05/04 01:46:33;;;;;;;6.63;4.53;;;;;;;;;;4983821;28;20205;-79
2022/05/04 01:49:00;;;;;;;9.20;5.27;;;;;;;;;;4988798;28;20201;-79
2022/05/04 01:51:27;;;;;;;9.13;5.00;;;;;;;;;;4985037;28;20241;-79
2022/05/04 01:53:54;;;;;;;9.07;5.43;;;;;;;;;;4985186;28;20225;-80
2022/05/04 01:56:23;;;;;;;9.63;5.00;;;;;;;;;;4984445;28;20630;-79
2022/05/04 01:58:51;;;;;;;9.90;5.37;;;;;;;;;;4983001;28;20693;-80
2022/05/04 02:01:18;;;;;;;7.43;4.40;;;;;;;;;;4987904;28;20217;-79
2022/05/04 02:03:46;;;;;;;10.60;5.00;;;;;;;;;;4987162;28;20789;-80
2022/05/04 02:06:13;;;;;;;8.80;4.87;;;;;;;;;;4990383;28;20716;-80
2022/05/04 02:08:41;;;;;;;7.90;4.80;;;;;;;;;;4984221;28;20220;-80
2022/05/04 02:11:08;;;;;;;11.97;5.13;;;;;;;;;;4987988;28;20570;-80
2022/05/04 02:13:37;;;;;;;8.33;5.30;;;;;;;;;;4988778;28;20221;-79
2022/05/04 02:16:05;;;;;;;10.10;4.90;;;;;;;;;;4991279;28;20228;-80
2022/05/04 02:18:33;;;;;;;7.50;4.77;;;;;;;;;;4982863;28;20209;-79
2022/05/04 02:21:01;;;;;;;13.77;5.00;;;;;;;;;;4990228;28;20655;-80
2022/05/04 02:23:30;;;;;;;10.03;5.30;;;;;;;;;;4984027;28;20829;-80
2022/05/04 02:25:57;;;;;;;7.47;4.90;;;;;;;;;;4983691;28;20662;-79
2022/05/04 02:28:24;;;;;;;9.93;5.20;;;;;;;;;;4988009;28;20212;-79
2022/05/04 02:30:53;;;;;;;11.23;5.40;;;;;;;;;;4985634;28;20207;-78
2022/05/04 02:33:20;;;;;;;12.10;5.30;;;;;;;;;;4983283;28;20220;-79
2022/05/04 02:38:32;;;;;;;7.80;4.93;;;;;;;;;;4981265;28;20220;-80
2022/05/04 02:40:59;;;;;;;9.03;5.20;;;;;;;;;;4984132;28;20269;-78
2022/05/04 02:43:28;;;;;;;9.13;5.20;;;;;;;;;;4983142;28;20220;-79
2022/05/04 02:45:56;;;;;;;7.77;4.80;;;;;;;;;;4983793;28;20277;-79
2022/05/04 02:48:24;;;;;;;8.10;4.80;;;;;;;;;;4981109;28;20205;-78
2022/05/04 02:50:51;;;;;;;12.03;4.93;;;;;;;;;;4982694;28;20217;-79
2022/05/04 02:53:18;;;;;;;9.87;5.27;;;;;;;;;;4982093;28;20300;-79
2022/05/04 02:55:45;;;;;;;8.67;5.40;;;;;;;;;;4981672;28;20629;-79
2022/05/04 02:58:13;;;;;;;9.43;5.53;;;;;;;;;;4985254;28;20279;-79
2022/05/04 03:00:40;;;;;;;9.23;5.60;;;;;;;;;;4980722;28;20692;-79
2022/05/04 03:03:10;;;;;;;9.70;5.83;;;;;;;;;;4983649;28;20208;-80
2022/05/04 03:05:38;;;;;;;16.93;5.87;;;;;;;;;;4980010;28;20236;-79
2022/05/04 03:08:05;;;;;;;11.90;6.10;;;;;;;;;;4988829;28;20193;-80
2022/05/04 03:11:54;;;;;;;10.13;5.70;;;;;;;;;;4986300;28;20256;-80
2022/05/04 03:13:20;;;;;;;11.63;6.13;;;;;;;;;;4981337;28;20611;-79
2022/05/04 03:15:47;;;;;;;8.83;5.10;;;;;;;;;;4984033;28;20212;-80
2022/05/04 03:18:15;;;;;;;9.87;5.13;;;;;;;;;;4987638;28;20263;-80
2022/05/04 03:20:42;;;;;;;9.47;5.30;;;;;;;;;;4988163;28;20214;-80
2022/05/04 03:23:10;;;;;;;13.47;5.70;;;;;;;;;;4994470;28;20284;-80
2022/05/04 03:25:37;;;;;;;11.80;5.90;;;;;;;;;;4991927;28;20206;-79
2022/05/04 03:28:04;;;;;;;10.40;5.83;;;;;;;;;;4981298;28;20207;-79
2022/05/04 03:30:31;;;;;;;10.20;6.20;;;;;;;;;;4984650;28;20218;-79
2022/05/04 03:32:59;;;;;;;10.17;5.77;;;;;;;;;;4980792;28;20284;-80
2022/05/04 03:35:27;;;;;;;12.83;6.13;;;;;;;;;;4983680;28;20220;-79
2022/05/04 03:37:54;;;;;;;10.57;5.43;;;;;;;;;;4986632;28;20230;-80
2022/05/04 03:40:24;;;;;;;9.33;5.70;;;;;;;;;;4985971;28;20236;-78
2022/05/04 03:42:54;;;;;;;14.00;6.03;;;;;;;;;;4984910;28;20248;-79
2022/05/04 03:45:21;;;;;;;15.03;6.30;;;;;;;;;;4990712;28;20596;-79
2022/05/04 03:47:51;;;;;;;19.80;7.03;;;;;;;;;;4983029;28;20303;-78
2022/05/04 03:50:19;;;;;;;16.63;5.90;;;;;;;;;;4992042;28;20209;-79
2022/05/04 03:52:50;;;;;;;15.23;6.47;;;;;;;;;;4988962;28;20209;-79
2022/05/04 03:55:17;;;;;;;13.27;5.93;;;;;;;;;;4986247;28;20264;-79
2022/05/04 03:57:44;;;;;;;10.17;5.47;;;;;;;;;;4987636;28;20233;-79
2022/05/04 04:00:12;;;;;;;11.57;5.60;;;;;;;;;;4986690;28;20670;-79
2022/05/04 04:02:39;;;;;;;13.70;5.93;;;;;;;;;;4990568;28;20244;-79
2022/05/04 04:05:07;;;;;;;11.97;6.00;;;;;;;;;;4988267;28;20268;-79
2022/05/04 04:07:34;;;;;;;16.83;6.10;;;;;;;;;;4988240;28;20256;-79
2022/05/04 04:10:03;;;;;;;15.07;6.20;;;;;;;;;;4986622;28;20293;-79
2022/05/04 04:12:30;;;;;;;12.00;5.93;;;;;;;;;;4989571;28;20264;-78
2022/05/04 04:15:00;;;;;;;18.83;6.10;;;;;;;;;;4989483;28;20221;-79
2022/05/04 04:17:27;;;;;;;18.00;5.63;;;;;;;;;;4990401;28;20256;-80
2022/05/04 04:22:36;;;;;;;17.57;6.20;;;;;;;;;;4987521;28;20201;-79
2022/05/04 04:25:06;;;;;;;12.60;5.83;;;;;;;;;;4985456;28;20296;-79
2022/05/04 04:27:36;;;;;;;14.63;6.53;;;;;;;;;;4992668;28;20197;-79
2022/05/04 04:30:03;;;;;;;10.97;6.40;;;;;;;;;;4989386;28;20208;-79
2022/05/04 04:32:30;;;;;;;12.70;6.13;;;;;;;;;;4986030;28;20766;-79
2022/05/04 04:34:58;;;;;;;18.10;5.80;;;;;;;;;;4988218;28;20287;-78
2022/05/04 04:37:25;;;;;;;16.30;6.13;;;;;;;;;;4986796;28;20229;-78
2022/05/04 04:39:52;;;;;;;13.87;6.47;;;;;;;;;;4986737;28;20205;-78
2022/05/04 04:42:20;;;;;;;10.27;5.60;;;;;;;;;;4986416;28;20665;-78
2022/05/04 04:44:48;;;;;;;11.33;6.07;;;;;;;;;;4989840;28;20320;-80
2022/05/04 04:47:15;;;;;;;11.87;6.10;;;;;;;;;;4990400;28;20194;-80
2022/05/04 04:49:42;;;;;;;13.03;6.03;;;;;;;;;;4987763;28;20213;-80
2022/05/04 04:52:09;;;;;;;13.43;6.43;;;;;;;;;;4989749;28;20204;-80
2022/05/04 04:54:36;;;;;;;12.03;6.00;;;;;;;;;;4991103;28;20235;-79
2022/05/04 04:57:16;;;;;;;13.93;6.00;;;;;;;;;;4992590;28;20228;-80
2022/05/04 04:59:44;;;;;;;14.50;6.60;;;;;;;;;;4991051;28;20205;-79
2022/05/04 05:02:11;;;;;;;13.87;6.00;;;;;;;;;;4985785;28;20241;-78
2022/05/04 05:04:38;;;;;;;9.57;6.00;;;;;;;;;;4986199;28;20308;-79
2022/05/04 05:07:08;;;;;;;14.57;6.97;;;;;;;;;;4985599;28;20205;-80
2022/05/04 05:09:35;;;;;;;10.47;6.13;;;;;;;;;;4988200;28;20713;-79
2022/05/04 05:12:02;;;;;;;12.47;6.63;;;;;;;;;;4988056;28;20209;-79
2022/05/04 05:17:19;;;;;;;14.90;6.30;;;;;;;;;;4984917;28;20244;-79
2022/05/04 05:19:46;;;;;;;15.20;6.43;;;;;;;;;;4987563;28;20223;-79
2022/05/04 05:22:13;;;;;;;17.93;6.27;;;;;;;;;;4985664;28;20211;-79
2022/05/04 05:24:40;;;;;;;24.07;7.17;;;;;;;;;;4986371;28;20740;-79
2022/05/04 05:27:08;;;;;;;23.70;7.33;;;;;;;;;;4986547;28;20287;-79
2022/05/04 05:29:36;;;;;;;20.90;6.57;;;;;;;;;;4989034;28;20209;-79
2022/05/04 05:32:03;;;;;;;14.83;6.33;;;;;;;;;;4989584;28;20220;-79
2022/05/04 05:34:34;;;;;;;18.63;6.60;;;;;;;;;;4986784;28;20229;-79
2022/05/04 05:37:01;;;;;;;14.10;6.40;;;;;;;;;;4994226;28;20732;-79
2022/05/04 05:39:29;;;;;;;12.87;6.77;;;;;;;;;;4983181;28;20689;-79
2022/05/04 05:41:56;;;;;;;14.40;6.40;;;;;;;;;;4988116;28;20249;-78
2022/05/04 05:44:23;;;;;;;12.07;6.20;;;;;;;;;;4985381;28;20228;-79
2022/05/04 05:46:50;;;;;;;15.27;6.20;;;;;;;;;;4983462;28;20205;-80
2022/05/04 05:49:17;;;;;;;16.17;6.83;;;;;;;;;;4983737;28;20299;-80
2022/05/04 05:51:46;;;;;;;13.90;7.70;;;;;;;;;;4992120;28;20622;-80
2022/05/04 05:54:13;;;;;;;22.80;7.33;;;;;;;;;;4988587;28;20225;-81
2022/05/04 05:56:41;;;;;;;12.17;7.33;;;;;;;;;;4990804;28;20686;-80
2022/05/04 05:59:08;;;;;;;14.07;7.33;;;;;;;;;;4991182;28;20217;-81
2022/05/04 06:01:35;;;;;;;14.37;8.07;;;;;;;;;;4985881;28;20240;-80
2022/05/04 06:04:02;;;;;;;19.17;8.17;;;;;;;;;;4985476;28;20789;-80
2022/05/04 06:06:30;;;;;;;15.70;7.80;;;;;;;;;;4986082;28;20260;-80
2022/05/04 06:08:58;;;;;;;11.90;7.10;;;;;;;;;;4982449;28;20284;-80
2022/05/04 06:11:25;;;;;;;19.33;6.80;;;;;;;;;;4985673;28;20200;-79
2022/05/04 06:13:53;;;;;;;16.50;6.97;;;;;;;;;;4986644;28;20233;-80
2022/05/04 06:16:20;;;;;;;16.87;8.60;;;;;;;;;;4986738;28;20213;-80
2022/05/04 06:18:47;;;;;;;15.37;8.00;;;;;;;;;;4984558;28;20228;-79
2022/05/04 06:21:14;;;;;;;13.43;7.33;;;;;;;;;;4985751;28;20300;-80
2022/05/04 06:23:42;;;;;;;16.50;7.30;;;;;;;;;;4986891;28;21350;-80
2022/05/04 06:26:10;;;;;;;14.67;7.73;;;;;;;;;;4990500;28;20237;-80
2022/05/04 06:28:37;;;;;;;14.97;7.73;;;;;;;;;;4986019;28;20223;-78
2022/05/04 06:34:12;;;;;;;17.60;7.73;;;;;;;;;;4955182;28;20225;-80
2022/05/04 06:36:40;;;;;;;15.23;8.50;;;;;;;;;;4985442;28;21412;-81
2022/05/04 06:39:08;;;;;;;15.73;7.93;;;;;;;;;;4983629;28;20221;-79
2022/05/04 06:41:37;;;;;;;17.77;8.43;;;;;;;;;;4988887;28;20219;-80
2022/05/04 06:44:29;;;;;;;19.20;8.77;;;;;;;;;;5017144;23;20240;-79
2022/05/04 06:46:57;;;;;;;20.03;8.33;;;;;;;;;;4988401;28;20208;-79
2022/05/04 06:49:27;;;;;;;14.43;8.27;;;;;;;;;;4985675;28;20236;-78
2022/05/04 06:51:54;;;;;;;19.40;8.90;;;;;;;;;;4985552;28;20854;-79
2022/05/04 06:54:21;;;;;;;12.23;8.33;;;;;;;;;;4982710;28;20601;-81
2022/05/04 06:56:57;;;;;;;14.37;8.60;;;;;;;;;;4982379;28;20301;-77
2022/05/04 06:59:26;;;;;;;28.77;16.43;;;;;;;;;;4981708;28;20657;-80
2022/05/04 07:01:58;;;;;;;23.83;15.13;;;;;;;;;;4985011;28;20320;-79
2022/05/04 07:04:31;;;;;;;36.30;22.77;;;;;;;;;;4983240;28;20229;-79
2022/05/04 07:07:01;;;;;;;26.30;16.13;;;;;;;;;;4982324;28;20272;-80
2022/05/04 07:09:29;;;;;;;18.87;9.80;;;;;;;;;;4983396;28;20689;-79
2022/05/04 07:11:58;;;;;;;15.70;8.70;;;;;;;;;;4986042;28;20221;-81
2022/05/04 07:14:26;;;;;;;18.10;8.53;;;;;;;;;;4990429;28;20640;-79
2022/05/04 07:16:54;;;;;;;16.60;9.57;;;;;;;;;;4989568;28;20215;-79
2022/05/04 07:19:23;;;;;;;22.43;9.90;;;;;;;;;;4986027;28;20233;-80
2022/05/04 07:21:50;;;;;;;18.90;9.57;;;;;;;;;;4986645;28;20212;-79
2022/05/04 07:24:17;;;;;;;17.00;8.73;;;;;;;;;;4992504;28;20304;-79
2022/05/04 07:26:45;;;;;;;13.87;8.60;;;;;;;;;;4990139;28;20299;-79
2022/05/04 07:29:13;;;;;;;20.30;9.67;;;;;;;;;;4985510;28;20764;-79
2022/05/04 07:31:41;;;;;;;14.90;8.70;;;;;;;;;;4989579;28;20601;-80
2022/05/04 07:34:08;;;;;;;20.07;9.10;;;;;;;;;;4993748;28;20284;-81
2022/05/04 07:36:40;;;;;;;20.77;10.00;;;;;;;;;;4990430;28;20255;-81
2022/05/04 07:42:21;;;;;;;22.10;9.93;;;;;;;;;;4994543;28;20271;-80
2022/05/04 07:44:45;;;;;;;20.07;11.50;;;;;;;;;;4986615;28;20288;-79
2022/05/04 07:47:13;;;;;;;24.93;12.17;;;;;;;;;;4988424;28;20684;-80
2022/05/04 07:49:40;;;;;;;28.00;13.60;;;;;;;;;;4988918;28;20212;-79
2022/05/04 07:52:07;;;;;;;25.57;13.13;;;;;;;;;;4997208;28;20205;-79
2022/05/04 07:54:34;;;;;;;23.40;12.20;;;;;;;;;;5014216;28;20221;-79
2022/05/04 07:57:04;;;;;;;18.13;10.60;;;;;;;;;;5003286;28;20577;-80
2022/05/04 07:59:43;;;;;;;18.50;11.13;;;;;;;;;;4990303;28;20228;-80
2022/05/04 08:05:04;;;;;;;22.97;11.97;;;;;;;;;;4992371;28;20336;-80
2022/05/04 08:07:31;;;;;;;20.27;11.13;;;;;;;;;;4987767;28;20974;-80
2022/05/04 08:09:59;;;;;;;19.37;10.63;;;;;;;;;;4995604;28;20209;-80
2022/05/04 08:12:29;;;;;;;19.30;10.30;;;;;;;;;;4991568;28;20220;-81
2022/05/04 08:14:57;;;;;;;17.43;10.73;;;;;;;;;;4990804;28;20311;-79
2022/05/04 08:17:42;;;;;;;20.90;10.03;;;;;;;;;;4993261;28;20209;-79
2022/05/04 08:20:12;;;;;;;18.97;10.23;;;;;;;;;;4993788;28;20770;-79
2022/05/04 08:22:39;;;;;;;20.33;10.57;;;;;;;;;;4986914;28;20224;-79
2022/05/04 08:25:09;;;;;;;20.97;11.23;;;;;;;;;;4987302;28;20224;-80
2022/05/04 08:27:37;;;;;;;25.00;12.13;;;;;;;;;;4990513;28;20212;-80
2022/05/04 08:30:07;;;;;;;22.73;10.97;;;;;;;;;;4989885;28;20205;-80
2022/05/04 08:32:37;;;;;;;23.90;12.57;;;;;;;;;;4994284;28;20201;-79
2022/05/04 08:35:05;;;;;;;21.77;11.73;;;;;;;;;;4988061;28;20264;-79
2022/05/04 08:37:34;;;;;;;21.30;11.37;;;;;;;;;;4981062;28;20265;-79
2022/05/04 08:40:01;;;;;;;21.30;11.07;;;;;;;;;;4979166;28;20221;-79
2022/05/04 08:42:29;;;;;;;18.80;10.87;;;;;;;;;;4977092;28;20212;-79
2022/05/04 08:44:58;;;;;;;17.23;10.93;;;;;;;;;;4978273;28;20264;-79
2022/05/04 08:47:28;;;;;;;21.23;11.57;;;;;;;;;;4977322;28;20229;-79
2022/05/04 08:49:55;;;;;;;17.80;11.10;;;;;;;;;;4977774;28;20577;-79
2022/05/04 08:52:23;;;;;;;18.67;10.47;;;;;;;;;;4985559;28;20221;-79
2022/05/04 08:54:54;;;;;;;18.07;9.57;;;;;;;;;;4986033;28;20224;-79
2022/05/04 08:57:29;;;;;;;23.57;11.17;;;;;;;;;;4983117;28;20205;-79
2022/05/04 08:59:56;;;;;;;20.50;10.63;;;;;;;;;;4987742;28;20248;-80
2022/05/04 09:02:26;;;;;;;19.37;10.37;;;;;;;;;;4988256;28;20751;-80
2022/05/04 09:04:53;;;;;;;20.00;10.10;;;;;;;;;;4988369;28;20224;-78
2022/05/04 09:07:25;;;;;;;19.90;10.67;;;;;;;;;;4988364;28;20206;-79
2022/05/04 09:10:06;;;;;;;16.03;9.83;;;;;;;;;;4986245;28;20229;-79
2022/05/04 09:12:33;;;;;;;23.50;10.03;;;;;;;;;;4986252;28;20227;-79
2022/05/04 09:15:01;;;;;;;16.57;9.20;;;;;;;;;;4985791;28;20225;-79
2022/05/04 09:17:28;;;;;;;17.83;9.33;;;;;;;;;;4984154;28;20224;-79
2022/05/04 09:22:40;;;;;;;18.53;8.97;;;;;;;;;;4986861;28;20211;-79
2022/05/04 09:25:14;;;;;;;14.33;8.50;;;;;;;;;;4984750;28;20621;-80
2022/05/04 09:27:52;;;;;;;15.10;7.63;;;;;;;;;;4982519;28;20740;-80
2022/05/04 09:30:24;;;;;;;19.53;7.63;;;;;;;;;;4983754;28;20209;-80
2022/05/04 09:32:55;;;;;;;13.57;7.20;;;;;;;;;;4985484;28;20210;-79
2022/05/04 09:35:28;;;;;;;13.17;7.10;;;;;;;;;;4985167;28;20225;-80
2022/05/04 09:46:34;;;;;;;13.57;7.53;;;;;;;;;;4951291;28;20213;-79
2022/05/04 09:49:09;;;;;;;15.17;7.47;;;;;;;;;;4984104;28;20205;-80
2022/05/04 09:51:37;;;;;;;14.57;7.73;;;;;;;;;;4987542;28;20205;-79
2022/05/04 09:54:20;;;;;;;11.63;6.80;;;;;;;;;;4990926;28;20339;-80
2022/05/04 09:56:59;;;;;;;12.93;6.83;;;;;;;;;;4986068;28;20263;-79
2022/05/04 09:59:29;;;;;;;10.23;6.27;;;;;;;;;;4987048;28;20220;-79
2022/05/04 10:01:59;;;;;;;11.87;6.50;;;;;;;;;;4985998;28;20748;-80
2022/05/04 10:04:28;;;;;;;10.47;6.63;;;;;;;;;;4979520;28;20235;-79
2022/05/04 10:06:56;;;;;;;10.43;6.40;;;;;;;;;;4982798;28;20197;-78
2022/05/04 10:09:26;;;;;;;10.90;6.20;;;;;;;;;;4980575;28;20288;-79
2022/05/04 10:11:57;;;;;;;11.30;6.33;;;;;;;;;;4981931;28;20211;-77
2022/05/04 10:14:27;;;;;;;11.37;6.63;;;;;;;;;;4977952;28;20220;-80
2022/05/04 10:16:56;;;;;;;18.47;7.23;;;;;;;;;;4984330;28;20628;-79
2022/05/04 10:19:25;;;;;;;12.53;6.87;;;;;;;;;;4985534;28;20466;-79
2022/05/04 10:21:54;;;;;;;12.97;6.73;;;;;;;;;;4983639;28;20240;-79
2022/05/04 10:24:22;;;;;;;12.57;7.17;;;;;;;;;;4983991;28;20232;-79
2022/05/04 10:32:39;;;;;;;14.67;7.63;;;;;;;;;;4982667;28;20212;-80
2022/05/04 10:35:10;;;;;;;11.00;6.70;;;;;;;;;;4977036;28;20256;-79
2022/05/04 10:37:54;;;;;;;11.33;6.20;;;;;;;;;;4982261;28;20692;-79
2022/05/04 10:40:24;;;;;;;11.93;6.63;;;;;;;;;;4982057;28;20237;-79
2022/05/04 10:43:23;;;;;;;10.93;5.80;;;;;;;;;;4982315;28;20624;-79
2022/05/04 10:45:53;;;;;;;10.37;5.50;;;;;;;;;;4982319;28;20300;-79
2022/05/04 10:48:26;;;;;;;8.77;5.80;;;;;;;;;;4979047;28;21017;-80
2022/05/04 10:50:55;;;;;;;10.80;5.60;;;;;;;;;;4981759;28;20220;-79
2022/05/04 10:53:23;;;;;;;12.53;6.30;;;;;;;;;;4983554;28;20205;-79
2022/05/04 10:55:58;;;;;;;9.03;6.20;;;;;;;;;;4980603;28;20210;-80
2022/05/04 10:58:34;;;;;;;10.80;6.33;;;;;;;;;;4980525;28;20209;-78
2022/05/04 11:01:11;;;;;;;12.07;6.30;;;;;;;;;;4980315;28;20219;-79
2022/05/04 11:03:39;;;;;;;9.43;6.07;;;;;;;;;;4978462;28;20256;-79
2022/05/04 11:06:11;;;;;;;11.10;6.60;;;;;;;;;;4984891;28;20201;-78
2022/05/04 11:08:48;;;;;;;10.10;6.17;;;;;;;;;;4982447;28;20252;-79
2022/05/04 11:11:16;;;;;;;13.00;6.67;;;;;;;;;;4983681;28;20251;-79
2022/05/04 11:13:45;;;;;;;12.67;6.33;;;;;;;;;;4982447;28;20653;-78
2022/05/04 11:16:17;;;;;;;11.53;6.30;;;;;;;;;;4978074;28;20205;-79
2022/05/04 11:18:44;;;;;;;11.40;6.27;;;;;;;;;;4981768;28;20530;-79
2022/05/04 11:21:17;;;;;;;10.93;6.20;;;;;;;;;;4983790;28;20205;-80
2022/05/04 11:23:49;;;;;;;11.63;5.97;;;;;;;;;;4978023;28;20229;-79
2022/05/04 11:26:20;;;;;;;10.80;6.40;;;;;;;;;;4983632;28;20216;-79
2022/05/04 11:28:52;;;;;;;9.27;6.17;;;;;;;;;;4983626;28;20260;-79
2022/05/04 11:31:22;;;;;;;9.70;6.37;;;;;;;;;;4984440;28;20696;-79
2022/05/04 11:33:49;;;;;;;10.40;6.10;;;;;;;;;;4982782;28;20292;-79
2022/05/04 11:36:18;;;;;;;15.03;6.40;;;;;;;;;;4979032;28;20300;-79
2022/05/04 11:38:46;;;;;;;10.53;6.13;;;;;;;;;;4980723;28;20205;-79
2022/05/04 11:41:13;;;;;;;12.87;6.50;;;;;;;;;;4980895;28;20259;-79
2022/05/04 11:43:41;;;;;;;8.57;6.03;;;;;;;;;;4981717;28;20663;-80
2022/05/04 11:46:09;;;;;;;10.70;6.20;;;;;;;;;;4984009;28;20205;-80
2022/05/04 11:48:39;;;;;;;9.30;6.40;;;;;;;;;;4983873;28;20243;-79
2022/05/04 11:51:14;;;;;;;11.37;5.70;;;;;;;;;;4984751;28;20205;-79
2022/05/04 11:53:42;;;;;;;10.73;5.93;;;;;;;;;;4982791;28;20646;-79
2022/05/04 11:56:11;;;;;;;11.40;5.90;;;;;;;;;;4984637;28;20208;-80
2022/05/04 11:58:38;;;;;;;10.10;5.50;;;;;;;;;;4983333;28;20608;-80
2022/05/04 12:01:07;;;;;;;10.63;5.33;;;;;;;;;;4987859;28;20197;-80
2022/05/04 12:03:38;;;;;;;9.93;5.93;;;;;;;;;;4984595;28;20685;-79
2022/05/04 12:06:10;;;;;;;10.07;6.17;;;;;;;;;;4989298;28;20205;-80
2022/05/04 12:08:41;;;;;;;10.20;6.57;;;;;;;;;;4989399;28;20236;-80
2022/05/04 12:11:09;;;;;;;8.23;5.27;;;;;;;;;;4984567;28;20208;-79
2022/05/04 12:13:38;;;;;;;10.07;6.10;;;;;;;;;;4987574;28;20572;-80
2022/05/04 12:16:09;;;;;;;11.83;5.93;;;;;;;;;;4986720;28;20205;-80
2022/05/04 12:18:41;;;;;;;12.07;6.03;;;;;;;;;;4985421;28;20214;-79
2022/05/04 12:21:14;;;;;;;12.87;5.13;;;;;;;;;;4984661;28;20328;-79
2022/05/04 12:23:42;;;;;;;13.00;6.00;;;;;;;;;;4984388;28;20220;-79
2022/05/04 12:26:13;;;;;;;11.10;6.13;;;;;;;;;;4984167;28;20231;-80
2022/05/04 12:28:41;;;;;;;13.10;7.13;;;;;;;;;;4985139;28;20227;-79
2022/05/04 12:33:56;;;;;;;14.60;6.33;;;;;;;;;;4985087;28;20224;-79
2022/05/04 12:36:25;;;;;;;9.17;6.10;;;;;;;;;;4988068;28;20621;-80
2022/05/04 12:38:53;;;;;;;11.43;6.20;;;;;;;;;;4984995;28;20224;-79
2022/05/04 12:41:22;;;;;;;15.67;6.67;;;;;;;;;;4991678;28;20267;-80
2022/05/04 12:43:51;;;;;;;9.47;6.20;;;;;;;;;;4984203;28;20593;-79
2022/05/04 12:46:22;;;;;;;12.57;7.00;;;;;;;;;;5001136;23;20235;-81
2022/05/04 12:48:50;;;;;;;9.90;6.27;;;;;;;;;;4975804;28;20209;-79
2022/05/04 12:51:18;;;;;;;13.13;6.27;;;;;;;;;;4978002;28;20324;-79
2022/05/04 12:53:48;;;;;;;12.17;6.17;;;;;;;;;;4976323;28;20206;-80
2022/05/04 12:59:01;;;;;;;11.47;5.57;;;;;;;;;;4974574;28;20278;-79
2022/05/04 13:01:29;;;;;;;8.67;5.73;;;;;;;;;;4977704;28;20210;-79
2022/05/04 13:03:57;;;;;;;14.53;7.33;;;;;;;;;;4976489;28;20206;-80
2022/05/04 13:06:24;;;;;;;13.83;7.37;;;;;;;;;;4976702;28;20229;-80
2022/05/04 13:08:53;;;;;;;10.40;6.67;;;;;;;;;;4975969;28;20287;-79
2022/05/04 13:11:21;;;;;;;11.97;7.20;;;;;;;;;;4972322;28;20298;-80
2022/05/04 13:13:48;;;;;;;13.73;7.90;;;;;;;;;;4972745;28;20861;-79
2022/05/04 13:16:16;;;;;;;12.17;7.37;;;;;;;;;;4972948;28;20233;-78
2022/05/04 13:18:43;;;;;;;15.07;7.87;;;;;;;;;;4975813;28;20214;-79
2022/05/04 13:21:12;;;;;;;13.07;8.80;;;;;;;;;;4974077;28;20415;-79
2022/05/04 13:23:40;;;;;;;14.47;7.17;;;;;;;;;;4973342;28;20206;-78
2022/05/04 13:26:14;;;;;;;56.80;7.03;;;;;;;;;;4980614;28;20666;-79
2022/05/04 13:28:41;;;;;;;11.57;7.40;;;;;;;;;;4979980;28;20583;-80
2022/05/04 13:31:09;;;;;;;11.97;6.37;;;;;;;;;;4971429;28;20198;-79
2022/05/04 13:33:36;;;;;;;12.93;8.23;;;;;;;;;;4971750;28;20217;-83
2022/05/04 13:36:03;;;;;;;15.27;9.10;;;;;;;;;;4969874;28;20301;-80
2022/05/04 13:38:31;;;;;;;14.87;8.53;;;;;;;;;;4971770;28;20237;-79
2022/05/04 13:40:58;;;;;;;16.43;8.17;;;;;;;;;;4970868;28;20229;-79
2022/05/04 13:43:27;;;;;;;15.70;8.90;;;;;;;;;;4981024;28;20219;-80
2022/05/04 13:45:54;;;;;;;14.50;8.30;;;;;;;;;;4976736;28;20297;-78
2022/05/04 13:48:21;;;;;;;15.77;8.73;;;;;;;;;;4979750;28;20237;-79
2022/05/04 13:53:33;;;;;;;16.20;10.30;;;;;;;;;;4971113;28;20226;-80
2022/05/04 13:56:00;;;;;;;15.40;9.30;;;;;;;;;;4973216;28;20225;-79
2022/05/04 13:58:31;;;;;;;19.87;10.47;;;;;;;;;;4978332;28;20205;-80
2022/05/04 14:00:59;;;;;;;16.93;9.07;;;;;;;;;;4974767;28;20225;-79
2022/05/04 14:03:27;;;;;;;16.67;10.30;;;;;;;;;;4977994;28;20293;-80
2022/05/04 14:06:06;;;;;;;18.90;9.90;;;;;;;;;;4976188;28;20252;-79
2022/05/04 14:08:33;;;;;;;19.00;10.20;;;;;;;;;;4972705;28;20202;-79
2022/05/04 14:11:04;;;;;;;16.37;10.03;;;;;;;;;;4975610;28;20292;-79
2022/05/04 14:13:32;;;;;;;16.37;10.97;;;;;;;;;;4979162;28;20210;-77
2022/05/04 14:16:00;;;;;;;18.30;10.03;;;;;;;;;;4968360;28;20313;-79
2022/05/04 14:18:30;;;;;;;17.80;9.03;;;;;;;;;;4972528;28;20210;-79
2022/05/04 14:20:59;;;;;;;15.47;9.73;;;;;;;;;;4972077;28;20285;-81
2022/05/04 14:23:29;;;;;;;18.50;10.17;;;;;;;;;;4975334;28;20264;-81
2022/05/04 14:25:58;;;;;;;20.40;10.07;;;;;;;;;;4978304;28;20221;-80
2022/05/04 14:28:28;;;;;;;24.57;10.00;;;;;;;;;;4971690;28;20206;-81
2022/05/04 14:30:57;;;;;;;18.53;9.50;;;;;;;;;;4966853;28;20193;-80
2022/05/04 14:33:26;;;;;;;13.77;9.30;;;;;;;;;;4977069;28;20210;-78
2022/05/04 14:35:53;;;;;;;21.73;9.57;;;;;;;;;;4972287;28;20264;-79
2022/05/04 14:38:21;;;;;;;16.80;9.03;;;;;;;;;;4976271;28;20210;-79
2022/05/04 14:40:48;;;;;;;16.80;9.10;;;;;;;;;;4974986;28;20218;-80
2022/05/04 14:43:20;;;;;;;17.17;9.47;;;;;;;;;;4972110;28;20290;-79
2022/05/04 14:45:47;;;;;;;16.80;8.87;;;;;;;;;;4969703;28;20226;-80
2022/05/04 14:48:18;;;;;;;14.80;8.53;;;;;;;;;;4976428;28;20202;-81
2022/05/04 14:50:45;;;;;;;16.47;8.73;;;;;;;;;;4973924;28;20285;-80
2022/05/04 14:53:18;;;;;;;15.70;9.23;;;;;;;;;;4978271;28;20218;-79
2022/05/04 14:55:45;;;;;;;18.43;9.60;;;;;;;;;;4983227;28;20260;-78
2022/05/04 14:58:12;;;;;;;13.50;8.90;;;;;;;;;;4976040;28;20229;-79
2022/05/04 15:00:39;;;;;;;16.47;9.00;;;;;;;;;;4971290;28;20293;-80
2022/05/04 15:05:53;;;;;;;16.73;8.80;;;;;;;;;;4973202;28;20240;-78
2022/05/04 15:08:22;;;;;;;16.07;8.97;;;;;;;;;;4972238;28;20202;-80
2022/05/04 15:10:52;;;;;;;12.87;8.07;;;;;;;;;;4974242;28;20297;-80
2022/05/04 15:13:19;;;;;;;13.47;9.37;;;;;;;;;;4972265;28;20216;-80
2022/05/04 15:15:46;;;;;;;12.97;8.20;;;;;;;;;;4975615;28;20808;-79
2022/05/04 15:18:13;;;;;;;13.23;8.17;;;;;;;;;;4972601;28;20732;-80
2022/05/04 15:20:40;;;;;;;14.13;8.73;;;;;;;;;;4970819;28;20226;-79
2022/05/04 15:23:11;;;;;;;17.40;8.23;;;;;;;;;;4969590;28;20277;-78
2022/05/04 15:25:39;;;;;;;11.80;8.20;;;;;;;;;;4969634;28;20228;-79
2022/05/04 15:28:06;;;;;;;14.93;8.60;;;;;;;;;;4964818;28;20210;-80